Flight Track Log - Related Links

Times and Time Zones

All times are in EST time to prevent confusion due to time zone crossing. See the EJA829P flight status page for this flight to view local times or setup timezone preferences in your user account.

Time Position Orientation Groundspeed Altitude Reporting Facility
EST Latitude Longitude Course Direction KTS MPH feet Rate Location/Type
Mon 10:47:03 AM 26.0750 -80.1297 78° East 151 174 1,800  Level Miami Center
Mon 10:48:04 AM 26.1053 -80.0842 53° Northeast 228 262 4,800 2,557 Climbing Miami Center
Mon 10:49:05 AM 26.1714 -80.1186 335° Northwest 287 330 7,000 2,420 Climbing Miami Center
Mon 10:50:03 AM 26.2269 -80.1547 330° Northwest 269 310 9,600 2,034 Climbing Miami Center
Mon 10:51:03 AM 26.2989 -80.2100 325° Northwest 291 335 11,000 1,250 Climbing Miami Center
Mon 10:52:03 AM 26.3667 -80.2606 326° Northwest 296 341 12,100 600 Climbing Miami Center
Mon 10:53:03 AM 26.4361 -80.3253 320° Northwest 311 358 12,200 1,050 Climbing Miami Center
Mon 10:54:03 AM 26.4989 -80.4014 313° West 321 369 14,200 1,850 Climbing Miami Center
Mon 10:55:03 AM 26.5661 -80.4753 315° West 333 383 15,900 1,800 Climbing Miami Center
Mon 10:56:03 AM 26.6636 -80.5017 346° North 346 398 17,800 1,700 Climbing Miami Center
Mon 10:57:03 AM 26.7631 -80.5350 343° North 357 411 19,300 1,700 Climbing Miami Center
Mon 10:58:03 AM 26.8606 -80.5636 345° North 366 421 21,200 1,850 Climbing Miami Center
Mon 10:59:03 AM 26.9619 -80.5947 345° North 366 421 23,000 1,750 Climbing Miami Center
Mon 11:00:03 AM 27.0572 -80.6236 345° North 361 415 24,700 1,600 Climbing Miami Center
Mon 11:01:03 AM 27.1547 -80.6522 345° North 361 415 26,200 1,450 Climbing Miami Center
Mon 11:02:03 AM 27.2453 -80.6950 337° Northwest 355 409 27,600 1,150 Climbing Miami Center
Mon 11:03:03 AM 27.3314 -80.7539 329° Northwest 355 409 28,500 950 Climbing Miami Center
Mon 11:04:03 AM 27.4197 -80.8108 330° Northwest 355 409 29,500 1,000 Climbing Miami Center
Mon 11:05:03 AM 27.5078 -80.8722 328° Northwest 362 417 30,500 1,000 Climbing Miami Center
Mon 11:06:03 AM 27.6025 -80.9156 338° Northwest 362 417 31,500 1,000 Climbing Miami Center
Mon 11:07:03 AM 27.7017 -80.9589 339° North 367 422 32,500 1,000 Climbing Miami Center
Mon 11:08:03 AM 27.8006 -81.0022 339° North 375 432 33,500 1,000 Climbing Miami Center
Mon 11:09:03 AM 27.8994 -81.0436 340° North 375 432 34,500 1,000 Climbing Miami Center
Mon 11:10:03 AM 27.9964 -81.0894 337° Northwest 380 437 35,500 1,050 Climbing Miami Center
Mon 11:11:03 AM 28.0950 -81.1331 339° North 380 437 36,600 750 Climbing Miami Center
Mon 11:12:03 AM 28.2031 -81.1561 349° North 380 437 37,000 200 Climbing Miami Center
Mon 11:13:03 AM 28.3131 -81.1719 353° North 390 449 37,000  Level Miami Center
Mon 11:14:03 AM 28.4314 -81.1906 352° North 402 463 37,000  Level Miami Center
Mon 11:15:03 AM 28.5456 -81.2094 352° North 410 472 37,000  Level Miami Center
Mon 11:15:33 AM 28.6022 -81.2208 350° North 410 472 37,000  Level Jacksonville Center
Mon 11:16:33 AM 28.7153 -81.2378 353° North 410 472 37,000  Level Jacksonville Center
Mon 11:17:33 AM 28.8281 -81.2572 351° North 410 472 37,000  Level Jacksonville Center
Mon 11:18:33 AM 28.9411 -81.2767 351° North 410 472 37,000  Level Jacksonville Center
Mon 11:19:33 AM 29.0542 -81.2964 351° North 410 472 37,000  Level Jacksonville Center
Mon 11:20:33 AM 29.1669 -81.3158 351° North 410 472 37,000  Level Jacksonville Center
Mon 11:21:33 AM 29.2836 -81.2997 North 416 479 37,000 350 Level Jacksonville Center
Mon 11:22:33 AM 29.4044 -81.2597 16° North 432 497 37,700 800 Climbing Jacksonville Center
Mon 11:23:33 AM 29.5042 -81.2247 17° North 420 483 38,600 650 Climbing Jacksonville Center
Mon 11:24:33 AM 29.6164 -81.1892 15° North 414 476 39,000 200 Climbing Jacksonville Center
Mon 11:25:33 AM 29.7347 -81.1489 16° North 420 483 39,000  Level Jacksonville Center
Mon 11:26:33 AM 29.8553 -81.1061 17° North 431 496 39,000  Level Jacksonville Center
Mon 11:27:33 AM 29.9736 -81.0656 17° North 436 502 39,000  Level Jacksonville Center
Mon 11:28:33 AM 30.0919 -81.0247 17° North 436 502 39,000  Level Jacksonville Center
Mon 11:29:33 AM 30.2083 -80.9842 17° North 436 502 39,000  Level Jacksonville Center
Mon 11:30:33 AM 30.3225 -80.9386 19° North 436 502 39,000  Level Jacksonville Center
Mon 11:31:33 AM 30.4386 -80.8906 20° North 436 502 39,000  Level Jacksonville Center
Mon 11:32:33 AM 30.5508 -80.8447 19° North 436 502 39,000  Level Jacksonville Center
Mon 11:33:33 AM 30.6669 -80.7986 19° North 436 502 39,000  Level Jacksonville Center
Mon 11:34:33 AM 30.7811 -80.7550 18° North 436 502 39,000  Level Jacksonville Center
Mon 11:35:33 AM 30.8950 -80.7064 20° North 436 502 39,000  Level Jacksonville Center
Mon 11:36:33 AM 31.0069 -80.6578 20° North 431 496 39,000  Level Jacksonville Center
Mon 11:37:33 AM 31.1250 -80.6139 18° North 431 496 39,000  Level Jacksonville Center
Mon 11:38:33 AM 31.2347 -80.5625 22° Northeast 426 490 39,000  Level Jacksonville Center
Mon 11:39:33 AM 31.3467 -80.5136 20° North 426 490 39,000  Level Jacksonville Center
Mon 11:40:33 AM 31.4647 -80.4667 19° North 432 497 39,000  Level Jacksonville Center
Mon 11:41:33 AM 31.5933 -80.4194 17° North 432 497 39,000  Level Jacksonville Center
Mon 11:42:33 AM 31.7072 -80.3700 20° North 427 491 39,000  Level Jacksonville Center
Mon 11:43:33 AM 31.8189 -80.3253 19° North 427 491 39,000  Level Jacksonville Center
Mon 11:44:33 AM 31.9350 -80.2731 21° North 433 498 39,000  Level Jacksonville Center
Mon 11:45:33 AM 32.0486 -80.2258 19° North 433 498 39,000  Level Jacksonville Center
Mon 11:46:33 AM 32.1644 -80.1758 20° North 433 498 39,000  Level Jacksonville Center
Mon 11:47:33 AM 32.2783 -80.1283 19° North 433 498 39,000  Level Jacksonville Center
Mon 11:48:33 AM 32.3922 -80.0806 20° North 433 498 39,000  Level Jacksonville Center
Mon 11:49:33 AM 32.5078 -80.0303 20° North 433 498 39,000  Level Jacksonville Center
Mon 11:50:33 AM 32.6217 -79.9822 20° North 433 498 39,000  Level Jacksonville Center
Mon 11:51:33 AM 32.7372 -79.9314 20° North 433 498 39,000  Level Jacksonville Center
Mon 11:52:33 AM 32.8531 -79.8808 20° North 433 498 39,000  Level Jacksonville Center
Mon 11:53:33 AM 32.9583 -79.8375 19° North 440 506 39,000  Level Jacksonville Center
Mon 11:54:33 AM 33.0742 -79.7867 20° North 445 512 39,000  Level Jacksonville Center
Mon 11:55:33 AM 33.1917 -79.7353 20° North 445 512 39,000  Level Jacksonville Center
Mon 11:56:33 AM 33.3075 -79.6864 19° North 445 512 39,000  Level Jacksonville Center
Mon 11:57:33 AM 33.4250 -79.6350 20° North 445 512 39,000  Level Jacksonville Center
Mon 11:58:33 AM 33.5406 -79.5833 20° North 440 506 39,000  Level Jacksonville Center
Mon 11:59:33 AM 33.6561 -79.5342 20° North 440 506 39,000  Level Jacksonville Center
Mon 12:00:33 PM 33.7694 -79.4847 20° North 440 506 39,000  Level Jacksonville Center
Mon 12:01:33 PM 33.8869 -79.4328 20° North 445 512 39,000  Level Jacksonville Center
Mon 12:02:33 PM 34.0108 -79.3803 19° North 438 504 39,000  Level Jacksonville Center
Mon 12:04:28 PM 34.2275 -79.2842 20° North 437 503 39,000  Level Washington Center
Mon 12:05:26 PM 34.3314 -79.2258 25° Northeast 447 514 39,000  Level Washington Center
Mon 12:06:26 PM 34.4439 -79.1628 25° Northeast 447 514 39,000  Level Washington Center
Mon 12:07:27 PM 34.5586 -79.0947 26° Northeast 447 514 39,000  Level Washington Center
Mon 12:08:27 PM 34.6711 -79.0289 26° Northeast 447 514 39,000  Level Washington Center
Mon 12:09:28 PM 34.7856 -78.9656 24° Northeast 447 514 39,000  Level Washington Center
Mon 12:10:25 PM 34.9003 -78.8967 26° Northeast 452 520 39,000  Level Washington Center
Mon 12:11:26 PM 35.0125 -78.8328 25° Northeast 452 520 39,000  Level Washington Center
Mon 12:12:27 PM 35.1250 -78.7664 26° Northeast 452 520 39,000  Level Washington Center
Mon 12:13:28 PM 35.2372 -78.6994 26° Northeast 452 520 39,000 -50 Level Washington Center
Mon 12:14:26 PM 35.3603 -78.6278 25° Northeast 447 514 38,900 -1,109 Descending Washington Center
Mon 12:15:27 PM 35.4619 -78.5656 26° Northeast 450 518 36,800 -2,262 Descending Washington Center
Mon 12:16:28 PM 35.5847 -78.4933 26° Northeast 450 518 34,300 -2,420 Descending Washington Center
Mon 12:17:26 PM 35.6989 -78.4258 26° Northeast 455 524 32,000 -2,390 Descending Washington Center
Mon 12:18:26 PM 35.8089 -78.3633 25° Northeast 445 512 29,600 -2,380 Descending Washington Center
Mon 12:19:27 PM 35.9211 -78.2953 26° Northeast 445 512 27,200 -2,331 Descending Washington Center
Mon 12:20:27 PM 36.0311 -78.2272 27° Northeast 440 506 24,900 -1,587 Descending Washington Center
Mon 12:21:28 PM 36.1347 -78.1664 25° Northeast 426 490 24,000 -450 Descending Washington Center
Mon 12:22:27 PM 36.2403 -78.1028 26° Northeast 416 479 24,000 -700 Level Washington Center
Mon 12:23:28 PM 36.3439 -78.0392 26° Northeast 410 472 22,600 -1,537 Descending Washington Center
Mon 12:24:28 PM 36.4433 -77.9778 26° Northeast 405 466 20,900 -1,780 Descending Washington Center
Mon 12:25:26 PM 36.5403 -77.9186 26° Northeast 400 460 19,100 -1,462 Descending Washington Center
Mon 12:26:27 PM 36.6333 -77.8592 27° Northeast 378 435 18,000 -1,230 Descending Washington Center
Mon 12:27:28 PM 36.7156 -77.8100 26° Northeast 370 426 16,600 -1,388 Descending Washington Center
Mon 12:28:28 PM 36.8064 -77.7553 26° Northeast 365 420 15,200 -1,424 Descending Washington Center
Mon 12:29:26 PM 36.8950 -77.7008 26° Northeast 360 414 13,800 -1,475 Descending Washington Center
Mon 12:30:26 PM 36.9856 -77.6461 26° Northeast 355 409 12,300 -1,500 Descending Washington Center
Mon 12:31:26 PM 37.0678 -77.5908 28° Northeast 343 395 10,800 -1,438 Descending Washington Center
Mon 12:32:27 PM 37.1417 -77.5486 24° Northeast 316 364 9,400 -1,388 Descending Washington Center
Mon 12:33:27 PM 37.2067 -77.5136 23° Northeast 279 321 8,000 -1,388 Descending Washington Center
Mon 12:34:28 PM 37.2758 -77.4944 12° North 252 290 6,600 -1,412 Descending Washington Center
Mon 12:35:26 PM 37.3431 -77.4700 16° North 246 283 5,200 -1,311 Descending Washington Center
Mon 12:36:27 PM 37.4122 -77.4483 14° North 246 283 4,000 -595 Descending Washington Center
Mon 12:37:27 PM 37.4814 -77.4289 13° North 241 277 4,000 -150 Level Washington Center
Mon 12:38:27 PM 37.5464 -77.4069 15° North 241 277 3,700 -1,026 Descending Washington Center
Mon 12:40:40 PM 37.5333 -77.3167 100° East 117 135 700 -1,353 Descending Potomac TRACON
Mon 12:42:00 PM 37.5000 -77.3167 North  Level FlightAware Approximate
Mon 12:49:00 PM 37.5052 -77.3197 North  Level Estimated
Mon 12:50:00 PM 37.5000 -77.3167 North  Level FlightAware Approximate

Login

Don't have an account? Register now (free) for customized features, flight alerts, and more!